createdAt,value
2018-08-31T00:00:29.420Z,94.60
2018-08-31T00:02:58.084Z,94.70
2018-08-31T00:05:49.347Z,94.80
2018-08-31T00:10:36.291Z,94.70
2018-08-31T00:13:04.902Z,94.60
2018-08-31T00:15:33.383Z,94.80
2018-08-31T00:18:01.852Z,94.80
2018-08-31T00:20:30.294Z,94.60
2018-08-31T00:22:58.793Z,94.60
2018-08-31T00:26:11.218Z,94.60
2018-08-31T00:29:07.503Z,94.90
2018-08-31T00:32:47.015Z,95.20
2018-08-31T00:36:25.991Z,95.30
2018-08-31T00:40:05.229Z,95.70
2018-08-31T00:42:44.907Z,95.50
2018-08-31T00:45:32.949Z,95.20
2018-08-31T00:48:02.033Z,95.40
2018-08-31T00:50:30.827Z,95.40
2018-08-31T00:52:59.635Z,95.50
2018-08-31T00:55:28.251Z,95.50
2018-08-31T00:57:56.740Z,95.60
2018-08-31T01:00:25.265Z,95.60
2018-08-31T01:02:53.785Z,95.70
2018-08-31T01:05:22.240Z,95.60
2018-08-31T01:07:50.697Z,95.70
2018-08-31T01:10:20.798Z,95.80
2018-08-31T01:12:49.771Z,95.70
2018-08-31T01:15:18.361Z,95.70
2018-08-31T01:17:47.563Z,95.60
2018-08-31T01:20:16.022Z,95.60
2018-08-31T01:22:44.450Z,95.60
2018-08-31T01:25:13.444Z,95.60
2018-08-31T01:27:42.300Z,95.70
2018-08-31T01:30:10.812Z,95.70
2018-08-31T01:32:39.410Z,95.60
2018-08-31T01:35:07.992Z,95.60
2018-08-31T01:37:36.417Z,95.60
2018-08-31T01:40:04.988Z,95.40
2018-08-31T01:42:33.600Z,95.40
2018-08-31T01:45:02.088Z,95.40
2018-08-31T01:47:30.644Z,95.40
2018-08-31T01:49:59.240Z,95.50
2018-08-31T01:52:27.758Z,95.40
2018-08-31T01:54:56.292Z,95.50
2018-08-31T01:57:24.816Z,95.70
2018-08-31T01:59:53.322Z,95.80
2018-08-31T02:02:23.387Z,96.00
2018-08-31T02:04:52.664Z,96.00
2018-08-31T02:07:21.162Z,95.70
2018-08-31T02:09:50.149Z,95.70
2018-08-31T02:12:18.604Z,95.70
2018-08-31T02:14:47.109Z,95.60
2018-08-31T02:17:15.562Z,95.50
2018-08-31T02:19:44.019Z,95.60
2018-08-31T02:22:12.494Z,95.60
2018-08-31T02:24:40.958Z,95.70
2018-08-31T02:27:09.533Z,95.70
2018-08-31T02:29:38.006Z,95.90
2018-08-31T02:32:06.537Z,95.80
2018-08-31T02:34:35.032Z,96.00
2018-08-31T02:37:03.599Z,95.90
2018-08-31T02:39:31.998Z,95.90
2018-08-31T02:42:00.452Z,95.70
2018-08-31T02:44:28.894Z,95.90
2018-08-31T02:46:57.625Z,96.00
2018-08-31T02:49:26.114Z,96.10
2018-08-31T02:51:54.522Z,96.20
2018-08-31T02:54:23.940Z,96.40
2018-08-31T02:56:52.415Z,96.50
2018-08-31T02:59:20.876Z,96.40
2018-08-31T03:01:49.302Z,96.40
2018-08-31T03:04:17.921Z,96.50
2018-08-31T03:06:46.372Z,96.50
2018-08-31T03:09:14.822Z,96.50
2018-08-31T03:11:43.530Z,96.50
2018-08-31T03:14:11.889Z,96.70
2018-08-31T03:16:40.297Z,96.50
2018-08-31T03:19:08.826Z,96.40
2018-08-31T03:21:37.332Z,96.60
2018-08-31T03:24:05.768Z,96.70
2018-08-31T03:26:34.376Z,96.60
2018-08-31T03:29:02.813Z,96.40
2018-08-31T03:31:31.254Z,96.40
2018-08-31T03:33:59.737Z,96.30
2018-08-31T03:36:28.200Z,96.20
2018-08-31T03:38:56.650Z,95.90
2018-08-31T03:41:26.080Z,96.00
2018-08-31T03:43:54.519Z,96.00
2018-08-31T03:46:22.997Z,95.90
2018-08-31T03:48:51.444Z,95.90
2018-08-31T03:51:19.946Z,95.90
2018-08-31T03:53:48.484Z,95.70
2018-08-31T03:56:16.967Z,95.70
2018-08-31T03:58:45.510Z,96.00
2018-08-31T04:01:16.516Z,96.00
2018-08-31T04:03:44.999Z,96.20
2018-08-31T04:06:13.536Z,96.60
2018-08-31T04:08:42.012Z,96.40
2018-08-31T04:11:10.518Z,96.50
2018-08-31T04:13:38.981Z,96.50
2018-08-31T04:16:07.499Z,96.60
2018-08-31T04:18:36.212Z,96.10
2018-08-31T04:21:04.728Z,96.00
2018-08-31T04:23:33.240Z,96.20
2018-08-31T04:26:01.672Z,96.60
2018-08-31T04:28:30.282Z,96.80
2018-08-31T04:30:58.789Z,96.90
2018-08-31T04:33:27.302Z,97.00
2018-08-31T04:35:55.874Z,96.80
2018-08-31T04:38:24.446Z,97.10
2018-08-31T04:40:54.113Z,97.00
2018-08-31T04:43:22.537Z,97.10
2018-08-31T04:45:51.058Z,97.20
2018-08-31T04:48:19.519Z,97.20
2018-08-31T04:50:47.954Z,97.20
2018-08-31T04:53:16.360Z,97.30
2018-08-31T04:55:44.940Z,97.20
2018-08-31T04:58:13.423Z,97.20
2018-08-31T05:00:41.997Z,96.80
2018-08-31T05:03:10.553Z,96.60
2018-08-31T05:05:45.772Z,96.70
2018-08-31T05:08:14.216Z,96.70
2018-08-31T05:10:42.793Z,96.90
2018-08-31T05:13:12.433Z,96.90
2018-08-31T05:15:40.858Z,96.90
2018-08-31T05:18:09.290Z,96.90
2018-08-31T05:20:42.845Z,97.10
2018-08-31T05:23:12.710Z,97.20
2018-08-31T05:25:45.953Z,97.30
2018-08-31T05:28:18.125Z,97.30
2018-08-31T05:30:51.773Z,97.30
2018-08-31T05:33:25.052Z,97.60
2018-08-31T05:35:53.508Z,97.00
2018-08-31T05:38:22.025Z,97.30
2018-08-31T05:40:54.961Z,97.10
2018-08-31T05:43:28.475Z,97.00
2018-08-31T05:46:01.394Z,96.90
2018-08-31T05:51:03.113Z,96.80
2018-08-31T05:53:31.757Z,97.40
2018-08-31T05:56:04.526Z,97.10
2018-08-31T05:58:38.341Z,96.80
2018-08-31T06:01:11.643Z,96.10
2018-08-31T06:03:44.987Z,96.10
2018-08-31T06:06:18.077Z,95.60
2018-08-31T06:08:48.533Z,95.70
2018-08-31T06:11:17.109Z,95.60
2018-08-31T06:13:49.542Z,95.50
2018-08-31T06:16:21.796Z,95.20
2018-08-31T06:18:55.163Z,95.00
2018-08-31T06:21:28.429Z,94.60
2018-08-31T06:24:02.714Z,95.30
2018-08-31T06:26:36.211Z,94.70
2018-08-31T06:29:04.927Z,94.20
2018-08-31T06:31:34.330Z,94.10
2018-08-31T06:34:05.403Z,93.90
2018-08-31T06:36:38.675Z,94.00
2018-08-31T06:39:11.068Z,93.90
2018-08-31T06:41:39.597Z,93.70
2018-08-31T06:44:08.065Z,93.70
2018-08-31T06:46:41.323Z,93.70
2018-08-31T06:49:14.817Z,93.70
2018-08-31T06:51:47.992Z,93.80
2018-08-31T06:54:21.175Z,93.80
2018-08-31T06:56:55.249Z,93.30
2018-08-31T06:59:24.889Z,93.40
2018-08-31T07:01:53.652Z,93.50
2018-08-31T07:04:25.108Z,93.40
2018-08-31T07:06:57.642Z,93.30
2018-08-31T07:09:32.882Z,93.20
2018-08-31T07:12:07.232Z,93.00
2018-08-31T07:17:45.153Z,92.70
2018-08-31T07:20:18.641Z,92.70
2018-08-31T07:22:51.585Z,93.00
2018-08-31T07:27:53.366Z,92.70
2018-08-31T07:30:22.191Z,92.40
2018-08-31T07:32:55.013Z,91.70
2018-08-31T07:35:27.337Z,91.20
2018-08-31T07:37:55.932Z,91.00
2018-08-31T07:40:24.401Z,90.90
2018-08-31T07:42:52.839Z,90.30
2018-08-31T07:45:21.541Z,90.10
2018-08-31T07:47:50.102Z,90.10
2018-08-31T07:50:23.935Z,88.50
2018-08-31T07:52:57.502Z,88.60
2018-08-31T07:55:29.781Z,87.80
2018-08-31T07:58:03.387Z,87.60
2018-08-31T08:00:31.935Z,88.20
2018-08-31T08:03:01.069Z,88.50
2018-08-31T08:05:32.218Z,87.80
2018-08-31T08:08:05.439Z,87.30
2018-08-31T08:10:36.945Z,86.50
2018-08-31T08:13:05.862Z,87.80
2018-08-31T08:15:34.889Z,89.00
2018-08-31T08:18:07.495Z,88.70
2018-08-31T08:20:41.093Z,86.40
2018-08-31T08:23:14.169Z,87.80
2018-08-31T08:25:47.201Z,86.80
2018-08-31T08:28:15.823Z,87.90
2018-08-31T08:30:44.929Z,88.30
2018-08-31T08:33:16.255Z,87.70
2018-08-31T08:35:49.124Z,87.30
2018-08-31T08:38:19.379Z,86.00
2018-08-31T08:40:48.531Z,86.50
2018-08-31T08:43:18.146Z,85.60
2018-08-31T08:45:51.436Z,85.00
2018-08-31T08:48:24.748Z,85.70
2018-08-31T08:50:58.137Z,84.30
2018-08-31T08:53:27.875Z,84.70
2018-08-31T08:55:56.342Z,85.60
2018-08-31T08:58:27.060Z,86.90
2018-08-31T09:01:00.038Z,85.90
2018-08-31T09:03:33.380Z,84.10
2018-08-31T09:06:03.322Z,84.00
2018-08-31T09:08:32.216Z,80.80
2018-08-31T09:11:02.137Z,81.80
2018-08-31T09:13:35.104Z,81.70
2018-08-31T09:16:08.300Z,82.10
2018-08-31T09:18:39.920Z,82.50
2018-08-31T09:21:09.944Z,82.10
2018-08-31T09:23:38.485Z,81.90
2018-08-31T09:26:13.532Z,81.40
2018-08-31T09:28:45.794Z,82.50
2018-08-31T09:31:19.626Z,81.90
2018-08-31T09:33:52.996Z,81.80
2018-08-31T09:36:32.846Z,80.40
2018-08-31T09:39:02.531Z,79.70
2018-08-31T09:41:36.052Z,77.80
2018-08-31T09:44:09.078Z,77.20
2018-08-31T09:46:42.755Z,77.20
2018-08-31T09:49:17.472Z,76.40
2018-08-31T09:54:27.185Z,74.60
2018-08-31T09:57:00.898Z,76.00
2018-08-31T09:59:34.499Z,74.10
2018-08-31T10:02:39.145Z,71.00
2018-08-31T10:05:12.193Z,70.40
2018-08-31T10:07:46.767Z,71.10
2018-08-31T10:10:15.224Z,71.30
2018-08-31T10:12:43.721Z,70.30
2018-08-31T10:15:13.128Z,71.90
2018-08-31T10:17:41.829Z,69.10
2018-08-31T10:20:10.439Z,66.90
2018-08-31T10:22:42.003Z,66.70
2018-08-31T10:25:16.033Z,65.90
2018-08-31T10:27:48.090Z,65.70
2018-08-31T10:30:20.890Z,64.00
2018-08-31T10:32:51.764Z,61.70
2018-08-31T10:35:20.566Z,61.50
2018-08-31T10:37:51.346Z,63.10
2018-08-31T10:40:24.210Z,60.40
2018-08-31T10:42:57.038Z,58.90
2018-08-31T10:45:25.900Z,57.60
2018-08-31T10:47:54.813Z,58.50
2018-08-31T10:50:26.110Z,57.60
2018-08-31T10:52:59.360Z,58.80
2018-08-31T10:55:32.555Z,59.60
2018-08-31T10:58:04.011Z,58.50
2018-08-31T11:00:32.769Z,58.30
2018-08-31T11:03:01.966Z,57.40
2018-08-31T11:05:34.593Z,59.30
2018-08-31T11:08:07.322Z,61.70
2018-08-31T11:10:42.134Z,61.10
2018-08-31T11:13:16.312Z,59.70
2018-08-31T11:15:49.902Z,59.60
2018-08-31T11:18:18.834Z,60.10
2018-08-31T11:20:49.080Z,61.90
2018-08-31T11:23:18.799Z,63.20
2018-08-31T11:25:52.144Z,65.20
2018-08-31T11:28:23.497Z,63.40
2018-08-31T11:30:53.090Z,62.30
2018-08-31T11:33:21.636Z,60.40
2018-08-31T11:35:54.648Z,58.80
2018-08-31T11:38:31.182Z,55.50
2018-08-31T11:41:02.148Z,55.80
2018-08-31T11:43:35.829Z,55.20
2018-08-31T11:46:12.838Z,55.40
2018-08-31T11:48:44.684Z,55.50
2018-08-31T11:51:19.362Z,54.50
2018-08-31T11:53:53.102Z,54.00
2018-08-31T11:56:26.880Z,54.60
2018-08-31T11:59:00.183Z,53.60
2018-08-31T12:01:33.041Z,53.90
2018-08-31T12:04:04.006Z,54.60
2018-08-31T12:06:41.332Z,56.40
2018-08-31T12:09:15.349Z,54.20
2018-08-31T12:14:16.941Z,54.40
2018-08-31T12:16:45.554Z,56.70
2018-08-31T12:19:17.676Z,57.50
2018-08-31T12:21:51.127Z,58.50
2018-08-31T12:24:24.408Z,58.50
2018-08-31T12:26:54.412Z,56.50
2018-08-31T12:29:22.846Z,57.10
2018-08-31T12:31:53.363Z,54.00
2018-08-31T12:34:28.991Z,52.40
2018-08-31T12:37:01.133Z,51.90
2018-08-31T12:39:34.491Z,51.50
2018-08-31T12:42:08.219Z,50.80
2018-08-31T12:44:41.649Z,52.10
2018-08-31T12:47:15.283Z,52.00
2018-08-31T12:49:43.698Z,52.50
2018-08-31T12:52:12.373Z,53.30
2018-08-31T12:54:41.309Z,53.40
2018-08-31T12:57:10.205Z,55.30
2018-08-31T12:59:38.973Z,56.50
2018-08-31T13:02:13.974Z,56.40
2018-08-31T13:04:46.681Z,56.00
2018-08-31T13:07:18.583Z,55.50
2018-08-31T13:09:51.675Z,52.00
2018-08-31T13:15:03.612Z,53.50
2018-08-31T13:17:34.988Z,52.10
2018-08-31T13:20:08.690Z,51.70
2018-08-31T13:22:41.996Z,51.80
2018-08-31T13:25:16.171Z,52.20
2018-08-31T13:30:24.185Z,52.10
2018-08-31T13:32:52.760Z,52.70
2018-08-31T13:35:21.999Z,54.00
2018-08-31T13:37:54.315Z,54.90
2018-08-31T13:40:27.504Z,54.50
2018-08-31T13:43:00.850Z,53.50
2018-08-31T13:45:39.418Z,52.00
2018-08-31T13:48:10.677Z,52.20
2018-08-31T13:50:43.828Z,53.30
2018-08-31T13:53:16.936Z,55.00
2018-08-31T13:55:50.186Z,55.00
2018-08-31T13:58:23.841Z,55.30
2018-08-31T14:00:57.007Z,56.50
2018-08-31T14:03:25.662Z,57.50
2018-08-31T14:05:54.252Z,57.60
2018-08-31T14:08:26.757Z,57.10
2018-08-31T14:10:59.841Z,57.40
2018-08-31T14:13:32.581Z,58.30
2018-08-31T14:16:03.447Z,57.60
2018-08-31T14:18:33.681Z,58.20
2018-08-31T14:21:02.260Z,58.10
2018-08-31T14:23:35.525Z,58.30
2018-08-31T14:26:08.513Z,58.40
2018-08-31T14:28:42.046Z,58.20
2018-08-31T14:33:43.831Z,57.20
2018-08-31T14:36:12.959Z,57.70
2018-08-31T14:38:45.987Z,57.90
2018-08-31T14:41:18.818Z,57.80
2018-08-31T14:43:52.743Z,57.50
2018-08-31T14:46:26.511Z,57.00
2018-08-31T14:48:55.085Z,57.30
2018-08-31T14:51:23.579Z,57.70
2018-08-31T14:53:52.161Z,56.90
2018-08-31T14:56:20.737Z,57.40
2018-08-31T14:58:49.260Z,57.80
2018-08-31T15:01:17.761Z,58.40
2018-08-31T15:03:46.293Z,58.50
2018-08-31T15:06:19.290Z,58.90
2018-08-31T15:08:53.599Z,59.30
2018-08-31T15:11:26.533Z,58.50
2018-08-31T15:14:01.977Z,59.00
2018-08-31T15:16:34.280Z,59.80
2018-08-31T15:19:07.916Z,58.50
2018-08-31T15:21:41.064Z,58.80
2018-08-31T15:26:43.257Z,58.40
2018-08-31T15:29:14.083Z,58.20
2018-08-31T15:31:47.808Z,57.90
2018-08-31T15:34:20.554Z,58.70
2018-08-31T15:36:54.593Z,59.20
2018-08-31T15:39:23.876Z,59.00
2018-08-31T15:41:52.711Z,58.20
2018-08-31T15:44:23.631Z,58.70
2018-08-31T15:46:59.263Z,57.70
2018-08-31T15:49:31.659Z,57.50
2018-08-31T15:52:07.803Z,57.80
2018-08-31T15:54:40.986Z,58.40
2018-08-31T15:57:09.503Z,57.40
2018-08-31T15:59:38.031Z,57.10
2018-08-31T16:02:07.144Z,57.40
2018-08-31T16:04:35.665Z,58.40
2018-08-31T16:07:04.248Z,57.90
2018-08-31T16:09:32.751Z,58.90
2018-08-31T16:12:01.409Z,59.10
2018-08-31T16:14:30.444Z,59.60
2018-08-31T16:16:58.972Z,59.70
2018-08-31T16:19:27.760Z,60.40
2018-08-31T16:21:56.636Z,60.90
2018-08-31T16:24:25.567Z,61.30
2018-08-31T16:26:54.136Z,60.80
2018-08-31T16:29:23.056Z,60.50
2018-08-31T16:31:51.930Z,59.80
2018-08-31T16:34:20.633Z,59.80
2018-08-31T16:36:49.117Z,60.10
2018-08-31T16:39:17.703Z,59.50
2018-08-31T16:41:46.144Z,59.00
2018-08-31T16:44:14.822Z,59.40
2018-08-31T16:46:43.310Z,59.50
2018-08-31T16:49:11.804Z,59.40
2018-08-31T16:51:40.297Z,59.80
2018-08-31T16:54:08.748Z,60.10
2018-08-31T16:56:37.281Z,61.10
2018-08-31T16:59:06.413Z,62.10
2018-08-31T17:01:41.711Z,62.30
2018-08-31T17:04:11.000Z,62.70
2018-08-31T17:06:39.627Z,63.40
2018-08-31T17:09:10.607Z,64.10
2018-08-31T17:11:39.112Z,64.60
2018-08-31T17:14:07.660Z,64.00
2018-08-31T17:16:36.479Z,64.50
2018-08-31T17:19:05.994Z,64.50
2018-08-31T17:21:34.586Z,64.50
2018-08-31T17:24:03.453Z,64.80
2018-08-31T17:26:37.084Z,64.60
2018-08-31T17:29:11.346Z,63.50
2018-08-31T17:31:45.051Z,63.90
2018-08-31T17:34:18.824Z,64.00
2018-08-31T17:36:52.636Z,64.40
2018-08-31T17:39:21.198Z,64.30
2018-08-31T17:41:49.811Z,64.10
2018-08-31T17:44:18.401Z,64.50
2018-08-31T17:46:46.903Z,65.20
2018-08-31T17:49:21.853Z,65.90
2018-08-31T17:51:50.425Z,66.50
2018-08-31T17:54:19.001Z,67.20
2018-08-31T17:56:47.574Z,67.70
2018-08-31T17:59:16.107Z,68.00
2018-08-31T18:01:44.694Z,67.80
2018-08-31T18:04:13.688Z,68.30
2018-08-31T18:06:42.210Z,68.50
2018-08-31T18:09:10.985Z,68.50
2018-08-31T18:11:39.617Z,67.80
2018-08-31T18:14:09.109Z,68.20
2018-08-31T18:16:37.799Z,70.10
2018-08-31T18:19:06.324Z,68.60
2018-08-31T18:21:35.049Z,69.20
2018-08-31T18:24:03.538Z,69.50
2018-08-31T18:26:32.488Z,69.90
2018-08-31T18:29:01.387Z,70.30
2018-08-31T18:31:30.000Z,71.00
2018-08-31T18:33:58.519Z,71.00
2018-08-31T18:36:27.053Z,71.80
2018-08-31T18:38:55.559Z,71.70
2018-08-31T18:41:24.149Z,72.30
2018-08-31T18:43:52.643Z,72.80
2018-08-31T18:46:22.928Z,73.50
2018-08-31T18:48:51.461Z,73.50
2018-08-31T18:51:20.165Z,74.70
2018-08-31T18:53:48.657Z,75.50
2018-08-31T18:56:17.242Z,75.80
2018-08-31T18:58:45.789Z,76.60
2018-08-31T19:01:14.239Z,76.80
2018-08-31T19:03:42.783Z,76.10
2018-08-31T19:06:11.611Z,77.10
2018-08-31T19:08:40.131Z,77.70
2018-08-31T19:11:09.031Z,78.50
2018-08-31T19:13:37.719Z,77.70
2018-08-31T19:16:06.465Z,79.00
2018-08-31T19:18:35.002Z,78.80
2018-08-31T19:21:04.377Z,79.10
2018-08-31T19:23:32.895Z,79.40
2018-08-31T19:26:01.601Z,80.00
2018-08-31T19:28:30.135Z,80.40
2018-08-31T19:30:58.823Z,80.10
2018-08-31T19:33:27.555Z,80.30
2018-08-31T19:35:56.181Z,80.90
2018-08-31T19:38:24.789Z,81.00
2018-08-31T19:40:53.511Z,82.70
2018-08-31T19:43:22.125Z,83.40
2018-08-31T19:45:51.189Z,83.80
2018-08-31T19:48:19.859Z,84.20
2018-08-31T19:50:48.501Z,84.30
2018-08-31T19:53:17.026Z,84.70
2018-08-31T19:55:45.594Z,84.70
2018-08-31T19:58:14.185Z,85.00
2018-08-31T20:00:45.789Z,85.40
2018-08-31T20:03:15.506Z,86.00
2018-08-31T20:05:45.305Z,86.30
2018-08-31T20:08:15.652Z,86.30
2018-08-31T20:10:45.588Z,86.80
2018-08-31T20:13:15.760Z,87.30
2018-08-31T20:15:46.842Z,87.50
2018-08-31T20:18:16.362Z,88.00
2018-08-31T20:20:45.639Z,88.40
2018-08-31T20:23:14.770Z,89.10
2018-08-31T20:25:43.668Z,89.30
2018-08-31T20:28:14.411Z,89.60
2018-08-31T20:30:43.773Z,90.00
2018-08-31T20:33:13.366Z,90.00
2018-08-31T20:35:42.186Z,90.00
2018-08-31T20:38:11.084Z,89.70
2018-08-31T20:40:39.590Z,90.10
2018-08-31T20:43:08.285Z,90.20
2018-08-31T20:45:36.844Z,90.40
2018-08-31T20:48:05.548Z,90.60
2018-08-31T20:50:34.348Z,90.80
2018-08-31T20:53:02.818Z,91.30
2018-08-31T20:55:31.457Z,91.10
2018-08-31T20:58:00.196Z,91.20
2018-08-31T21:00:28.758Z,91.70
2018-08-31T21:02:57.718Z,91.30
2018-08-31T21:05:26.396Z,91.50
2018-08-31T21:07:54.952Z,91.30
2018-08-31T21:10:23.488Z,91.50
2018-08-31T21:12:52.085Z,91.60
2018-08-31T21:15:20.578Z,91.90
2018-08-31T21:17:49.115Z,92.00
2018-08-31T21:20:18.606Z,92.10
2018-08-31T21:22:47.143Z,92.10
2018-08-31T21:25:15.806Z,92.20
2018-08-31T21:27:46.164Z,92.40
2018-08-31T21:30:15.074Z,92.20
2018-08-31T21:32:43.867Z,92.20
2018-08-31T21:35:12.486Z,92.30
2018-08-31T21:37:40.988Z,92.20
2018-08-31T21:40:09.554Z,92.30
2018-08-31T21:42:38.274Z,92.50
2018-08-31T21:45:06.820Z,92.50
2018-08-31T21:47:35.821Z,92.50
2018-08-31T21:50:04.410Z,92.70
2018-08-31T21:52:32.904Z,92.70
2018-08-31T21:55:01.500Z,92.70
2018-08-31T21:57:30.337Z,92.90
2018-08-31T21:59:59.075Z,92.70
2018-08-31T22:02:28.043Z,92.90
2018-08-31T22:04:56.658Z,92.80
2018-08-31T22:07:25.584Z,92.90
2018-08-31T22:09:54.344Z,93.00
2018-08-31T22:12:23.080Z,93.00
2018-08-31T22:19:45.680Z,92.90
2018-08-31T22:22:14.200Z,93.20
2018-08-31T22:24:42.770Z,93.30
2018-08-31T22:27:11.572Z,93.30
2018-08-31T22:29:40.126Z,93.00
2018-08-31T22:32:08.734Z,93.00
2018-08-31T22:34:37.254Z,92.90
2018-08-31T22:37:06.036Z,92.40
2018-08-31T22:39:34.524Z,92.20
2018-08-31T22:42:03.084Z,92.00
2018-08-31T22:44:35.706Z,92.10
2018-08-31T22:47:05.508Z,92.00
2018-08-31T22:49:34.244Z,92.50
2018-08-31T22:52:02.698Z,92.30
2018-08-31T22:54:31.212Z,92.20
2018-08-31T22:57:00.188Z,92.20
2018-08-31T22:59:28.756Z,92.30
2018-08-31T23:01:57.214Z,92.40
2018-08-31T23:04:25.724Z,92.30
2018-08-31T23:06:54.762Z,92.60
2018-08-31T23:09:23.266Z,92.90
2018-08-31T23:11:51.725Z,93.10
2018-08-31T23:14:20.240Z,93.30
2018-08-31T23:16:49.057Z,93.50
2018-08-31T23:19:18.724Z,93.70
2018-08-31T23:21:47.516Z,93.70
2018-08-31T23:24:16.115Z,93.80
2018-08-31T23:26:44.642Z,93.90
2018-08-31T23:29:13.220Z,94.00
2018-08-31T23:31:41.733Z,94.00
2018-08-31T23:34:10.196Z,94.30
2018-08-31T23:36:38.615Z,94.40
2018-08-31T23:39:08.025Z,94.70
2018-08-31T23:41:36.504Z,94.80
2018-08-31T23:44:05.517Z,94.90
2018-08-31T23:46:33.951Z,95.00
2018-08-31T23:49:02.411Z,94.80
2018-08-31T23:51:30.851Z,94.50
2018-08-31T23:53:59.315Z,94.70
2018-08-31T23:56:27.763Z,94.70
2018-08-31T23:58:56.286Z,94.80
